sensor_id;sensor_type;location;lat;lon;timestamp;P1;durP1;ratioP1;P2;durP2;ratioP2
77524;SDS011;66638;50.050;21.124;2024-03-02T00:02:18;30.00;;;16.60;;
77524;SDS011;66638;50.050;21.124;2024-03-02T00:05:06;30.20;;;17.80;;
77524;SDS011;66638;50.050;21.124;2024-03-02T00:07:57;27.20;;;16.30;;
77524;SDS011;66638;50.050;21.124;2024-03-02T00:10:45;31.00;;;18.80;;
77524;SDS011;66638;50.050;21.124;2024-03-02T00:13:32;31.20;;;18.40;;
77524;SDS011;66638;50.050;21.124;2024-03-02T00:16:20;31.70;;;18.00;;
77524;SDS011;66638;50.050;21.124;2024-03-02T00:19:08;24.70;;;14.70;;
77524;SDS011;66638;50.050;21.124;2024-03-02T00:21:56;29.30;;;17.30;;
77524;SDS011;66638;50.050;21.124;2024-03-02T00:24:43;39.20;;;18.90;;
77524;SDS011;66638;50.050;21.124;2024-03-02T00:30:35;28.10;;;17.50;;
77524;SDS011;66638;50.050;21.124;2024-03-02T00:33:46;26.70;;;17.00;;
77524;SDS011;66638;50.050;21.124;2024-03-02T00:36:34;28.20;;;15.80;;
77524;SDS011;66638;50.050;21.124;2024-03-02T00:39:21;29.40;;;16.70;;
77524;SDS011;66638;50.050;21.124;2024-03-02T00:44:55;25.70;;;16.60;;
77524;SDS011;66638;50.050;21.124;2024-03-02T00:50:30;28.60;;;16.90;;
77524;SDS011;66638;50.050;21.124;2024-03-02T00:53:20;26.30;;;14.50;;
77524;SDS011;66638;50.050;21.124;2024-03-02T00:56:11;27.80;;;17.30;;
77524;SDS011;66638;50.050;21.124;2024-03-02T00:58:58;27.40;;;16.80;;
77524;SDS011;66638;50.050;21.124;2024-03-02T01:01:47;27.30;;;16.90;;
77524;SDS011;66638;50.050;21.124;2024-03-02T01:04:35;27.50;;;14.60;;
77524;SDS011;66638;50.050;21.124;2024-03-02T01:07:22;27.90;;;17.20;;
77524;SDS011;66638;50.050;21.124;2024-03-02T01:10:09;27.40;;;16.00;;
77524;SDS011;66638;50.050;21.124;2024-03-02T01:12:57;27.20;;;15.90;;
77524;SDS011;66638;50.050;21.124;2024-03-02T01:15:44;23.20;;;14.40;;
77524;SDS011;66638;50.050;21.124;2024-03-02T01:21:19;27.80;;;15.30;;
77524;SDS011;66638;50.050;21.124;2024-03-02T01:24:06;23.20;;;14.70;;
77524;SDS011;66638;50.050;21.124;2024-03-02T01:26:53;23.90;;;13.90;;
77524;SDS011;66638;50.050;21.124;2024-03-02T01:29:41;21.30;;;12.70;;
77524;SDS011;66638;50.050;21.124;2024-03-02T01:32:29;22.60;;;13.20;;
77524;SDS011;66638;50.050;21.124;2024-03-02T01:35:17;23.80;;;14.40;;
77524;SDS011;66638;50.050;21.124;2024-03-02T01:38:04;30.80;;;18.40;;
77524;SDS011;66638;50.050;21.124;2024-03-02T01:40:53;25.70;;;15.90;;
77524;SDS011;66638;50.050;21.124;2024-03-02T01:43:41;26.60;;;15.90;;
77524;SDS011;66638;50.050;21.124;2024-03-02T01:46:28;25.50;;;15.90;;
77524;SDS011;66638;50.050;21.124;2024-03-02T01:49:16;27.70;;;16.70;;
77524;SDS011;66638;50.050;21.124;2024-03-02T01:52:04;24.60;;;14.70;;
77524;SDS011;66638;50.050;21.124;2024-03-02T01:54:51;25.20;;;14.70;;
77524;SDS011;66638;50.050;21.124;2024-03-02T01:57:38;25.50;;;16.60;;
77524;SDS011;66638;50.050;21.124;2024-03-02T02:00:25;28.00;;;15.40;;
77524;SDS011;66638;50.050;21.124;2024-03-02T02:03:12;27.50;;;16.80;;
77524;SDS011;66638;50.050;21.124;2024-03-02T02:06:00;26.00;;;16.50;;
77524;SDS011;66638;50.050;21.124;2024-03-02T02:08:47;25.20;;;16.60;;
77524;SDS011;66638;50.050;21.124;2024-03-02T02:14:21;27.80;;;15.40;;
77524;SDS011;66638;50.050;21.124;2024-03-02T02:17:08;27.30;;;14.30;;
77524;SDS011;66638;50.050;21.124;2024-03-02T02:19:55;25.40;;;15.90;;
77524;SDS011;66638;50.050;21.124;2024-03-02T02:22:55;27.80;;;16.40;;
77524;SDS011;66638;50.050;21.124;2024-03-02T02:25:50;28.60;;;17.10;;
77524;SDS011;66638;50.050;21.124;2024-03-02T02:31:24;29.80;;;16.50;;
77524;SDS011;66638;50.050;21.124;2024-03-02T02:34:12;24.60;;;16.70;;
77524;SDS011;66638;50.050;21.124;2024-03-02T02:37:01;26.90;;;15.00;;
77524;SDS011;66638;50.050;21.124;2024-03-02T02:39:48;24.50;;;14.90;;
77524;SDS011;66638;50.050;21.124;2024-03-02T02:42:36;25.90;;;15.60;;
77524;SDS011;66638;50.050;21.124;2024-03-02T02:45:23;22.60;;;14.20;;
77524;SDS011;66638;50.050;21.124;2024-03-02T02:48:10;28.30;;;14.60;;
77524;SDS011;66638;50.050;21.124;2024-03-02T02:53:45;26.20;;;15.80;;
77524;SDS011;66638;50.050;21.124;2024-03-02T02:56:32;23.30;;;14.20;;
77524;SDS011;66638;50.050;21.124;2024-03-02T02:59:19;24.40;;;13.80;;
77524;SDS011;66638;50.050;21.124;2024-03-02T03:04:53;23.70;;;12.60;;
77524;SDS011;66638;50.050;21.124;2024-03-02T03:10:28;27.50;;;17.20;;
77524;SDS011;66638;50.050;21.124;2024-03-02T03:13:15;24.80;;;14.20;;
77524;SDS011;66638;50.050;21.124;2024-03-02T03:16:03;22.60;;;14.30;;
77524;SDS011;66638;50.050;21.124;2024-03-02T03:18:51;23.60;;;16.60;;
77524;SDS011;66638;50.050;21.124;2024-03-02T03:21:40;28.80;;;15.50;;
77524;SDS011;66638;50.050;21.124;2024-03-02T03:24:27;24.90;;;15.40;;
77524;SDS011;66638;50.050;21.124;2024-03-02T03:27:14;28.50;;;15.80;;
77524;SDS011;66638;50.050;21.124;2024-03-02T03:30:01;26.00;;;15.20;;
77524;SDS011;66638;50.050;21.124;2024-03-02T03:32:49;23.50;;;15.10;;
77524;SDS011;66638;50.050;21.124;2024-03-02T03:35:37;23.30;;;14.80;;
77524;SDS011;66638;50.050;21.124;2024-03-02T03:38:24;21.90;;;14.40;;
77524;SDS011;66638;50.050;21.124;2024-03-02T03:41:11;23.60;;;16.20;;
77524;SDS011;66638;50.050;21.124;2024-03-02T03:43:59;24.30;;;14.10;;
77524;SDS011;66638;50.050;21.124;2024-03-02T03:46:46;21.90;;;13.90;;
77524;SDS011;66638;50.050;21.124;2024-03-02T03:49:34;23.90;;;13.80;;
77524;SDS011;66638;50.050;21.124;2024-03-02T03:52:21;26.30;;;16.20;;
77524;SDS011;66638;50.050;21.124;2024-03-02T03:55:08;29.00;;;15.10;;
77524;SDS011;66638;50.050;21.124;2024-03-02T03:57:55;27.30;;;17.00;;
77524;SDS011;66638;50.050;21.124;2024-03-02T04:00:42;29.00;;;16.40;;
77524;SDS011;66638;50.050;21.124;2024-03-02T04:06:17;23.50;;;14.40;;
77524;SDS011;66638;50.050;21.124;2024-03-02T04:09:04;26.50;;;15.10;;
77524;SDS011;66638;50.050;21.124;2024-03-02T04:11:52;24.10;;;16.50;;
77524;SDS011;66638;50.050;21.124;2024-03-02T04:14:40;24.60;;;15.30;;
77524;SDS011;66638;50.050;21.124;2024-03-02T04:17:29;31.60;;;16.70;;
77524;SDS011;66638;50.050;21.124;2024-03-02T04:20:19;27.10;;;16.00;;
77524;SDS011;66638;50.050;21.124;2024-03-02T04:23:05;28.20;;;16.50;;
77524;SDS011;66638;50.050;21.124;2024-03-02T04:25:53;28.80;;;16.20;;
77524;SDS011;66638;50.050;21.124;2024-03-02T04:31:27;24.80;;;14.30;;
77524;SDS011;66638;50.050;21.124;2024-03-02T04:34:15;22.50;;;14.30;;
77524;SDS011;66638;50.050;21.124;2024-03-02T04:37:03;20.30;;;13.20;;
77524;SDS011;66638;50.050;21.124;2024-03-02T04:39:50;18.00;;;11.50;;
77524;SDS011;66638;50.050;21.124;2024-03-02T04:42:37;27.80;;;16.40;;
77524;SDS011;66638;50.050;21.124;2024-03-02T04:45:25;23.60;;;13.90;;
77524;SDS011;66638;50.050;21.124;2024-03-02T04:48:12;29.40;;;17.50;;
77524;SDS011;66638;50.050;21.124;2024-03-02T04:51:00;27.80;;;16.70;;
77524;SDS011;66638;50.050;21.124;2024-03-02T04:53:47;30.50;;;17.00;;
77524;SDS011;66638;50.050;21.124;2024-03-02T04:56:35;27.20;;;15.80;;
77524;SDS011;66638;50.050;21.124;2024-03-02T04:59:36;28.70;;;17.10;;
77524;SDS011;66638;50.050;21.124;2024-03-02T05:02:24;28.10;;;16.70;;
77524;SDS011;66638;50.050;21.124;2024-03-02T05:05:11;22.90;;;15.80;;
77524;SDS011;66638;50.050;21.124;2024-03-02T05:07:58;29.00;;;16.30;;
77524;SDS011;66638;50.050;21.124;2024-03-02T05:10:46;28.40;;;13.80;;
77524;SDS011;66638;50.050;21.124;2024-03-02T05:16:20;29.20;;;16.00;;
77524;SDS011;66638;50.050;21.124;2024-03-02T05:21:54;26.60;;;15.30;;
77524;SDS011;66638;50.050;21.124;2024-03-02T05:24:42;27.50;;;16.00;;
77524;SDS011;66638;50.050;21.124;2024-03-02T05:27:29;25.60;;;16.10;;
77524;SDS011;66638;50.050;21.124;2024-03-02T05:30:17;28.00;;;16.80;;
77524;SDS011;66638;50.050;21.124;2024-03-02T05:33:04;29.00;;;16.60;;
77524;SDS011;66638;50.050;21.124;2024-03-02T05:35:52;25.00;;;14.60;;
77524;SDS011;66638;50.050;21.124;2024-03-02T05:38:40;26.50;;;16.30;;
77524;SDS011;66638;50.050;21.124;2024-03-02T05:41:28;28.40;;;16.50;;
77524;SDS011;66638;50.050;21.124;2024-03-02T05:47:02;29.20;;;16.00;;
77524;SDS011;66638;50.050;21.124;2024-03-02T05:49:50;29.10;;;17.10;;
77524;SDS011;66638;50.050;21.124;2024-03-02T05:52:38;27.70;;;17.20;;
77524;SDS011;66638;50.050;21.124;2024-03-02T05:55:25;29.50;;;17.20;;
77524;SDS011;66638;50.050;21.124;2024-03-02T05:58:13;33.60;;;18.30;;
77524;SDS011;66638;50.050;21.124;2024-03-02T06:01:20;23.80;;;15.50;;
77524;SDS011;66638;50.050;21.124;2024-03-02T06:04:09;25.20;;;15.30;;
77524;SDS011;66638;50.050;21.124;2024-03-02T06:07:00;32.00;;;17.40;;
77524;SDS011;66638;50.050;21.124;2024-03-02T06:09:47;27.00;;;17.80;;
77524;SDS011;66638;50.050;21.124;2024-03-02T06:12:37;27.40;;;14.90;;
77524;SDS011;66638;50.050;21.124;2024-03-02T06:15:25;30.50;;;16.60;;
77524;SDS011;66638;50.050;21.124;2024-03-02T06:18:12;25.20;;;15.10;;
77524;SDS011;66638;50.050;21.124;2024-03-02T06:21:00;28.50;;;15.30;;
77524;SDS011;66638;50.050;21.124;2024-03-02T06:23:48;29.00;;;17.00;;
77524;SDS011;66638;50.050;21.124;2024-03-02T06:26:35;23.10;;;14.00;;
77524;SDS011;66638;50.050;21.124;2024-03-02T06:29:22;22.70;;;13.80;;
77524;SDS011;66638;50.050;21.124;2024-03-02T06:34:57;28.30;;;16.20;;
77524;SDS011;66638;50.050;21.124;2024-03-02T06:40:31;21.70;;;12.70;;
77524;SDS011;66638;50.050;21.124;2024-03-02T06:43:18;27.00;;;15.90;;
77524;SDS011;66638;50.050;21.124;2024-03-02T06:46:09;20.40;;;13.50;;
77524;SDS011;66638;50.050;21.124;2024-03-02T06:49:01;25.80;;;12.80;;
77524;SDS011;66638;50.050;21.124;2024-03-02T06:51:49;31.20;;;18.20;;
77524;SDS011;66638;50.050;21.124;2024-03-02T06:57:24;25.00;;;14.20;;
77524;SDS011;66638;50.050;21.124;2024-03-02T07:00:11;28.50;;;15.00;;
77524;SDS011;66638;50.050;21.124;2024-03-02T07:02:59;26.40;;;16.50;;
77524;SDS011;66638;50.050;21.124;2024-03-02T07:05:47;23.90;;;14.00;;
77524;SDS011;66638;50.050;21.124;2024-03-02T07:08:35;25.20;;;14.00;;
77524;SDS011;66638;50.050;21.124;2024-03-02T07:11:22;27.30;;;14.00;;
77524;SDS011;66638;50.050;21.124;2024-03-02T07:14:10;22.20;;;13.60;;
77524;SDS011;66638;50.050;21.124;2024-03-02T07:16:58;27.80;;;16.10;;
77524;SDS011;66638;50.050;21.124;2024-03-02T07:22:32;19.50;;;12.50;;
77524;SDS011;66638;50.050;21.124;2024-03-02T07:25:20;26.10;;;16.00;;
77524;SDS011;66638;50.050;21.124;2024-03-02T07:28:07;23.20;;;14.30;;
77524;SDS011;66638;50.050;21.124;2024-03-02T07:31:03;29.40;;;16.00;;
77524;SDS011;66638;50.050;21.124;2024-03-02T07:33:51;27.60;;;16.60;;
77524;SDS011;66638;50.050;21.124;2024-03-02T07:36:38;26.70;;;15.40;;
77524;SDS011;66638;50.050;21.124;2024-03-02T07:39:27;28.50;;;17.10;;
77524;SDS011;66638;50.050;21.124;2024-03-02T07:42:14;26.20;;;16.30;;
77524;SDS011;66638;50.050;21.124;2024-03-02T07:45:03;28.70;;;17.40;;
77524;SDS011;66638;50.050;21.124;2024-03-02T07:47:52;24.30;;;15.80;;
77524;SDS011;66638;50.050;21.124;2024-03-02T07:50:40;24.20;;;14.60;;
77524;SDS011;66638;50.050;21.124;2024-03-02T07:53:29;26.10;;;14.60;;
77524;SDS011;66638;50.050;21.124;2024-03-02T07:56:18;28.00;;;16.30;;
77524;SDS011;66638;50.050;21.124;2024-03-02T07:59:09;21.60;;;11.10;;
77524;SDS011;66638;50.050;21.124;2024-03-02T08:01:57;22.80;;;12.90;;
77524;SDS011;66638;50.050;21.124;2024-03-02T08:04:45;26.70;;;15.90;;
77524;SDS011;66638;50.050;21.124;2024-03-02T08:07:33;22.70;;;14.10;;
77524;SDS011;66638;50.050;21.124;2024-03-02T08:10:20;24.20;;;14.50;;
77524;SDS011;66638;50.050;21.124;2024-03-02T08:15:55;26.70;;;15.60;;
77524;SDS011;66638;50.050;21.124;2024-03-02T08:18:42;27.40;;;16.80;;
77524;SDS011;66638;50.050;21.124;2024-03-02T08:21:29;25.60;;;16.20;;
77524;SDS011;66638;50.050;21.124;2024-03-02T08:24:22;24.30;;;14.70;;
77524;SDS011;66638;50.050;21.124;2024-03-02T08:27:12;29.70;;;16.00;;
77524;SDS011;66638;50.050;21.124;2024-03-02T08:29:59;28.80;;;16.10;;
77524;SDS011;66638;50.050;21.124;2024-03-02T08:32:46;24.20;;;14.60;;
77524;SDS011;66638;50.050;21.124;2024-03-02T08:35:34;25.70;;;15.70;;
77524;SDS011;66638;50.050;21.124;2024-03-02T08:38:23;22.10;;;14.40;;
77524;SDS011;66638;50.050;21.124;2024-03-02T08:41:10;24.60;;;13.60;;
77524;SDS011;66638;50.050;21.124;2024-03-02T08:43:59;27.10;;;16.20;;
77524;SDS011;66638;50.050;21.124;2024-03-02T08:46:47;26.70;;;15.10;;
77524;SDS011;66638;50.050;21.124;2024-03-02T08:52:22;26.80;;;16.00;;
77524;SDS011;66638;50.050;21.124;2024-03-02T08:55:13;24.10;;;15.00;;
77524;SDS011;66638;50.050;21.124;2024-03-02T08:58:00;25.30;;;14.00;;
77524;SDS011;66638;50.050;21.124;2024-03-02T09:00:48;24.40;;;14.10;;
77524;SDS011;66638;50.050;21.124;2024-03-02T09:03:36;25.10;;;12.90;;
77524;SDS011;66638;50.050;21.124;2024-03-02T09:06:24;22.20;;;14.10;;
77524;SDS011;66638;50.050;21.124;2024-03-02T09:09:14;18.90;;;13.10;;
77524;SDS011;66638;50.050;21.124;2024-03-02T09:12:01;26.60;;;15.60;;
77524;SDS011;66638;50.050;21.124;2024-03-02T09:14:48;25.90;;;15.70;;
77524;SDS011;66638;50.050;21.124;2024-03-02T09:22:55;23.50;;;13.60;;
77524;SDS011;66638;50.050;21.124;2024-03-02T09:36:39;30.30;;;16.00;;
77524;SDS011;66638;50.050;21.124;2024-03-02T09:41:24;25.40;;;15.90;;
77524;SDS011;66638;50.050;21.124;2024-03-02T09:50:54;22.40;;;13.00;;
77524;SDS011;66638;50.050;21.124;2024-03-02T10:09:33;23.40;;;14.20;;
77524;SDS011;66638;50.050;21.124;2024-03-02T10:14:19;27.60;;;15.60;;
77524;SDS011;66638;50.050;21.124;2024-03-02T10:23:47;25.90;;;15.10;;
77524;SDS011;66638;50.050;21.124;2024-03-02T11:29:42;23.50;;;14.50;;
77524;SDS011;66638;50.050;21.124;2024-03-02T11:34:33;25.10;;;15.10;;
77524;SDS011;66638;50.050;21.124;2024-03-02T11:53:59;29.60;;;17.60;;
77524;SDS011;66638;50.050;21.124;2024-03-02T12:12:30;20.90;;;12.20;;
77524;SDS011;66638;50.050;21.124;2024-03-02T12:21:31;16.00;;;8.90;;
77524;SDS011;66638;50.050;21.124;2024-03-02T12:35:04;24.50;;;13.50;;
77524;SDS011;66638;50.050;21.124;2024-03-02T12:50:20;17.00;;;11.20;;
77524;SDS011;66638;50.050;21.124;2024-03-02T12:55:10;21.70;;;13.10;;
77524;SDS011;66638;50.050;21.124;2024-03-02T12:59:44;21.10;;;13.00;;
77524;SDS011;66638;50.050;21.124;2024-03-02T13:49:35;17.30;;;10.60;;
77524;SDS011;66638;50.050;21.124;2024-03-02T14:07:56;18.50;;;11.30;;
77524;SDS011;66638;50.050;21.124;2024-03-02T14:50:03;31.70;;;18.90;;
77524;SDS011;66638;50.050;21.124;2024-03-02T14:59:37;40.10;;;22.70;;
77524;SDS011;66638;50.050;21.124;2024-03-02T15:13:24;39.00;;;20.50;;
77524;SDS011;66638;50.050;21.124;2024-03-02T15:22:36;40.10;;;22.70;;
77524;SDS011;66638;50.050;21.124;2024-03-02T15:27:07;49.90;;;28.00;;
77524;SDS011;66638;50.050;21.124;2024-03-02T15:36:21;50.50;;;28.50;;
77524;SDS011;66638;50.050;21.124;2024-03-02T15:50:40;42.40;;;26.00;;
77524;SDS011;66638;50.050;21.124;2024-03-02T16:04:25;50.40;;;27.40;;
77524;SDS011;66638;50.050;21.124;2024-03-02T16:13:59;54.80;;;30.00;;
77524;SDS011;66638;50.050;21.124;2024-03-02T17:38:05;70.30;;;35.70;;
77524;SDS011;66638;50.050;21.124;2024-03-02T18:34:41;72.50;;;40.30;;
77524;SDS011;66638;50.050;21.124;2024-03-02T18:39:47;75.10;;;40.90;;
77524;SDS011;66638;50.050;21.124;2024-03-02T19:02:46;67.70;;;37.20;;
77524;SDS011;66638;50.050;21.124;2024-03-02T20:09:30;68.50;;;40.00;;
77524;SDS011;66638;50.050;21.124;2024-03-02T20:18:37;73.00;;;40.00;;
77524;SDS011;66638;50.050;21.124;2024-03-02T20:41:14;57.20;;;32.60;;
77524;SDS011;66638;50.050;21.124;2024-03-02T20:46:01;52.60;;;29.60;;
77524;SDS011;66638;50.050;21.124;2024-03-02T21:09:07;69.20;;;37.70;;
77524;SDS011;66638;50.050;21.124;2024-03-02T21:18:41;71.80;;;39.80;;
77524;SDS011;66638;50.050;21.124;2024-03-02T21:28:47;70.60;;;42.10;;
77524;SDS011;66638;50.050;21.124;2024-03-02T21:33:41;53.60;;;32.30;;
77524;SDS011;66638;50.050;21.124;2024-03-02T22:10:07;68.30;;;39.30;;
77524;SDS011;66638;50.050;21.124;2024-03-02T22:37:56;64.10;;;38.00;;
77524;SDS011;66638;50.050;21.124;2024-03-02T22:51:24;65.30;;;36.80;;
77524;SDS011;66638;50.050;21.124;2024-03-02T23:01:29;62.40;;;35.20;;
77524;SDS011;66638;50.050;21.124;2024-03-02T23:28:28;57.70;;;34.70;;
77524;SDS011;66638;50.050;21.124;2024-03-02T23:42:36;57.90;;;34.40;;
77524;SDS011;66638;50.050;21.124;2024-03-02T23:47:07;59.80;;;34.80;;
